createdAt,value
2019-02-15T00:00:31.270Z,78.24
2019-02-15T00:03:04.094Z,78.09
2019-02-15T00:05:34.523Z,77.94
2019-02-15T00:08:08.083Z,78.03
2019-02-15T00:10:38.495Z,77.89
2019-02-15T00:13:13.570Z,77.87
2019-02-15T00:15:41.607Z,77.84
2019-02-15T00:18:40.298Z,77.80
2019-02-15T00:21:15.741Z,77.74
2019-02-15T00:23:46.411Z,77.78
2019-02-15T00:26:16.921Z,77.76
2019-02-15T00:28:47.426Z,77.56
2019-02-15T00:31:21.973Z,77.35
2019-02-15T00:33:52.390Z,77.35
2019-02-15T00:36:23.051Z,77.37
2019-02-15T00:38:53.354Z,77.41
2019-02-15T00:41:23.829Z,77.17
2019-02-15T00:43:54.511Z,77.29
2019-02-15T00:46:34.936Z,77.06
2019-02-15T00:49:07.251Z,77.24
2019-02-15T00:51:52.547Z,77.25
2019-02-15T00:54:31.491Z,77.14
2019-02-15T00:57:28.496Z,77.10
2019-02-15T01:00:13.094Z,77.02
2019-02-15T01:03:01.053Z,76.82
2019-02-15T01:06:06.275Z,76.90
2019-02-15T01:08:44.960Z,76.81
2019-02-15T01:11:22.734Z,76.70
2019-02-15T01:13:53.124Z,76.67
2019-02-15T01:16:23.520Z,76.43
2019-02-15T01:18:54.163Z,76.52
2019-02-15T01:21:24.720Z,76.29
2019-02-15T01:23:55.123Z,76.21
2019-02-15T01:26:33.909Z,76.07
2019-02-15T01:29:35.705Z,75.92
2019-02-15T01:32:24.306Z,75.81
2019-02-15T01:35:23.734Z,75.85
2019-02-15T01:38:05.299Z,75.56
2019-02-15T01:40:47.765Z,75.57
2019-02-15T01:43:39.796Z,75.70
2019-02-15T01:46:19.393Z,75.60
2019-02-15T01:48:50.026Z,75.51
2019-02-15T01:51:20.480Z,75.47
2019-02-15T01:53:50.863Z,75.45
2019-02-15T01:56:21.363Z,75.27
2019-02-15T01:58:51.904Z,75.40
2019-02-15T02:01:24.971Z,75.18
2019-02-15T02:03:55.466Z,75.11
2019-02-15T02:06:26.238Z,75.30
2019-02-15T02:08:56.736Z,75.15
2019-02-15T02:11:27.231Z,75.12
2019-02-15T02:13:57.738Z,74.99
2019-02-15T02:16:28.622Z,74.95
2019-02-15T02:18:59.204Z,74.85
2019-02-15T02:21:29.978Z,74.71
2019-02-15T02:24:00.686Z,74.59
2019-02-15T02:26:31.914Z,74.78
2019-02-15T02:29:02.300Z,74.86
2019-02-15T02:31:32.731Z,74.84
2019-02-15T02:34:04.357Z,74.75
2019-02-15T02:36:53.664Z,74.67
2019-02-15T02:39:25.338Z,74.62
2019-02-15T02:41:55.853Z,74.63
2019-02-15T02:44:26.755Z,74.83
2019-02-15T02:46:57.173Z,74.84
2019-02-15T02:49:27.727Z,74.78
2019-02-15T02:51:58.225Z,74.98
2019-02-15T02:54:28.803Z,74.96
2019-02-15T02:56:59.273Z,74.86
2019-02-15T02:59:29.856Z,74.65
2019-02-15T03:02:00.253Z,74.68
2019-02-15T03:04:30.895Z,74.67
2019-02-15T03:07:01.474Z,74.58
2019-02-15T03:09:31.992Z,74.82
2019-02-15T03:12:02.929Z,74.81
2019-02-15T03:14:33.771Z,74.75
2019-02-15T03:17:04.261Z,74.61
2019-02-15T03:19:34.747Z,74.52
2019-02-15T03:22:05.439Z,74.83
2019-02-15T03:24:36.031Z,74.76
2019-02-15T03:27:06.665Z,74.81
2019-02-15T03:29:37.508Z,74.98
2019-02-15T03:32:08.091Z,74.61
2019-02-15T03:34:38.611Z,74.90
2019-02-15T03:37:43.761Z,75.04
2019-02-15T03:40:25.573Z,75.08
2019-02-15T03:42:55.899Z,75.04
2019-02-15T03:45:26.554Z,75.25
2019-02-15T03:47:57.111Z,75.05
2019-02-15T03:50:27.777Z,75.01
2019-02-15T03:52:58.796Z,74.89
2019-02-15T03:55:30.053Z,74.84
2019-02-15T03:58:00.777Z,75.07
2019-02-15T04:00:32.531Z,75.09
2019-02-15T04:03:03.217Z,75.25
2019-02-15T04:05:34.950Z,75.34
2019-02-15T04:08:05.866Z,75.38
2019-02-15T04:10:36.726Z,75.32
2019-02-15T04:13:07.679Z,75.25
2019-02-15T04:15:38.424Z,75.21
2019-02-15T04:18:09.082Z,74.97
2019-02-15T04:20:39.706Z,75.02
2019-02-15T04:23:12.383Z,75.08
2019-02-15T04:25:42.986Z,75.13
2019-02-15T04:28:13.572Z,75.20
2019-02-15T04:30:43.991Z,75.17
2019-02-15T04:33:14.724Z,75.02
2019-02-15T04:35:45.231Z,74.88
2019-02-15T04:38:16.139Z,74.71
2019-02-15T04:40:46.917Z,74.69
2019-02-15T04:43:17.564Z,74.73
2019-02-15T04:45:48.508Z,74.70
2019-02-15T04:48:20.202Z,74.58
2019-02-15T04:50:51.082Z,74.53
2019-02-15T04:53:22.333Z,74.48
2019-02-15T04:55:53.000Z,74.58
2019-02-15T04:58:23.774Z,74.59
2019-02-15T05:00:54.579Z,74.71
2019-02-15T05:03:25.245Z,74.49
2019-02-15T05:05:56.216Z,74.53
2019-02-15T05:08:27.917Z,74.34
2019-02-15T05:10:58.926Z,73.88
2019-02-15T05:13:29.489Z,74.06
2019-02-15T05:16:00.542Z,74.20
2019-02-15T05:18:31.657Z,73.82
2019-02-15T05:21:02.387Z,73.59
2019-02-15T05:23:33.833Z,73.74
2019-02-15T05:26:04.574Z,73.49
2019-02-15T05:28:35.058Z,73.47
2019-02-15T05:31:06.287Z,73.43
2019-02-15T05:33:37.121Z,73.36
2019-02-15T05:36:07.777Z,73.10
2019-02-15T05:38:41.489Z,73.27
2019-02-15T05:41:11.948Z,73.21
2019-02-15T05:43:42.529Z,73.09
2019-02-15T05:46:14.033Z,72.92
2019-02-15T05:48:44.982Z,72.83
2019-02-15T05:51:15.943Z,72.72
2019-02-15T05:53:47.203Z,72.45
2019-02-15T05:56:17.729Z,72.49
2019-02-15T05:58:49.409Z,72.53
2019-02-15T06:01:22.031Z,72.65
2019-02-15T06:03:52.598Z,72.49
2019-02-15T06:06:23.455Z,72.43
2019-02-15T06:08:54.026Z,72.30
2019-02-15T06:11:24.705Z,72.49
2019-02-15T06:13:57.576Z,72.45
2019-02-15T06:16:28.367Z,72.24
2019-02-15T06:18:59.497Z,71.96
2019-02-15T06:21:30.449Z,72.25
2019-02-15T06:24:01.855Z,72.38
2019-02-15T06:26:32.699Z,72.03
2019-02-15T06:29:03.530Z,72.03
2019-02-15T06:31:34.148Z,72.23
2019-02-15T06:34:06.099Z,72.43
2019-02-15T06:36:36.491Z,72.33
2019-02-15T06:39:14.135Z,71.91
2019-02-15T06:41:44.848Z,72.11
2019-02-15T06:44:16.353Z,72.31
2019-02-15T06:46:47.512Z,72.55
2019-02-15T06:49:18.655Z,72.43
2019-02-15T06:51:49.170Z,72.34
2019-02-15T06:54:20.389Z,71.94
2019-02-15T06:56:51.211Z,72.21
2019-02-15T06:59:44.363Z,72.29
2019-02-15T07:09:59.085Z,72.26
2019-02-15T07:12:30.780Z,72.35
2019-02-15T07:15:01.607Z,72.62
2019-02-15T07:17:32.256Z,72.76
2019-02-15T07:20:03.161Z,72.84
2019-02-15T07:22:33.629Z,72.81
2019-02-15T07:25:05.336Z,72.90
2019-02-15T07:27:36.119Z,72.91
2019-02-15T07:30:08.759Z,72.81
2019-02-15T07:32:39.316Z,72.90
2019-02-15T07:35:10.117Z,73.12
2019-02-15T07:37:40.639Z,73.18
2019-02-15T07:40:11.314Z,73.26
2019-02-15T07:42:42.220Z,73.22
2019-02-15T07:45:12.947Z,73.15
2019-02-15T07:47:43.971Z,72.48
2019-02-15T07:50:14.543Z,72.52
2019-02-15T07:52:46.371Z,72.47
2019-02-15T07:55:17.256Z,72.51
2019-02-15T07:57:48.021Z,72.81
2019-02-15T08:00:19.777Z,72.71
2019-02-15T08:02:50.685Z,73.44
2019-02-15T08:05:23.400Z,73.61
2019-02-15T08:07:54.087Z,74.00
2019-02-15T08:10:25.110Z,74.23
2019-02-15T08:12:55.820Z,73.82
2019-02-15T08:15:35.629Z,73.71
2019-02-15T08:17:59.939Z,74.14
2019-02-15T08:20:30.789Z,74.26
2019-02-15T08:23:01.689Z,74.31
2019-02-15T08:25:32.419Z,73.92
2019-02-15T08:28:03.505Z,73.70
2019-02-15T08:30:34.277Z,73.48
2019-02-15T08:33:04.969Z,73.16
2019-02-15T08:35:35.682Z,72.70
2019-02-15T08:38:06.607Z,72.39
2019-02-15T08:40:37.563Z,72.27
2019-02-15T08:43:08.351Z,72.24
2019-02-15T08:45:38.994Z,72.00
2019-02-15T08:48:09.825Z,72.17
2019-02-15T08:50:40.761Z,72.21
2019-02-15T08:53:11.561Z,71.96
2019-02-15T08:55:42.412Z,71.95
2019-02-15T08:58:13.231Z,71.81
2019-02-15T09:00:44.108Z,72.19
2019-02-15T09:03:14.961Z,72.24
2019-02-15T09:05:46.076Z,72.11
2019-02-15T09:08:16.977Z,71.99
2019-02-15T09:10:48.823Z,71.51
2019-02-15T09:13:19.291Z,71.60
2019-02-15T09:15:50.375Z,71.61
2019-02-15T09:18:20.867Z,71.34
2019-02-15T09:20:51.416Z,71.43
2019-02-15T09:23:22.054Z,71.32
2019-02-15T09:25:52.902Z,71.27
2019-02-15T09:28:32.740Z,71.28
2019-02-15T09:31:03.432Z,71.22
2019-02-15T09:33:34.963Z,71.15
2019-02-15T09:36:05.697Z,71.05
2019-02-15T09:38:36.593Z,71.00
2019-02-15T09:41:07.316Z,70.80
2019-02-15T09:43:38.027Z,71.04
2019-02-15T09:46:09.518Z,71.26
2019-02-15T09:48:40.229Z,71.35
2019-02-15T09:51:11.513Z,71.60
2019-02-15T09:53:42.350Z,71.58
2019-02-15T09:56:13.031Z,71.56
2019-02-15T09:58:43.835Z,71.24
2019-02-15T10:01:14.496Z,71.04
2019-02-15T10:03:45.061Z,71.06
2019-02-15T10:06:15.651Z,71.52
2019-02-15T10:08:46.844Z,71.28
2019-02-15T10:11:17.655Z,71.28
2019-02-15T10:13:48.705Z,71.40
2019-02-15T10:16:28.333Z,71.53
2019-02-15T10:18:52.118Z,71.36
2019-02-15T10:21:24.324Z,71.83
2019-02-15T10:23:55.009Z,71.94
2019-02-15T10:26:26.007Z,71.72
2019-02-15T10:28:57.142Z,73.03
2019-02-15T10:31:28.769Z,73.31
2019-02-15T10:33:59.742Z,73.04
2019-02-15T10:36:30.785Z,72.83
2019-02-15T10:39:02.428Z,72.95
2019-02-15T10:41:36.760Z,73.08
2019-02-15T10:44:07.825Z,73.03
2019-02-15T10:46:38.500Z,73.03
2019-02-15T10:49:09.438Z,73.05
2019-02-15T10:51:40.038Z,73.40
2019-02-15T10:54:10.992Z,73.33
2019-02-15T10:56:42.765Z,73.36
2019-02-15T10:59:14.372Z,73.30
2019-02-15T11:01:45.057Z,73.50
2019-02-15T11:04:17.231Z,73.42
2019-02-15T11:06:49.094Z,73.40
2019-02-15T11:09:19.735Z,73.29
2019-02-15T11:11:50.657Z,73.21
2019-02-15T11:14:21.760Z,73.07
2019-02-15T11:16:52.738Z,72.65
2019-02-15T11:19:23.535Z,72.51
2019-02-15T11:21:54.261Z,72.69
2019-02-15T11:24:25.181Z,73.00
2019-02-15T11:26:56.013Z,73.16
2019-02-15T11:29:28.130Z,73.17
2019-02-15T11:32:01.289Z,73.24
2019-02-15T11:34:32.252Z,73.26
2019-02-15T11:37:03.164Z,73.29
2019-02-15T11:39:34.099Z,72.92
2019-02-15T11:42:04.979Z,73.00
2019-02-15T11:44:35.619Z,73.50
2019-02-15T11:47:06.487Z,73.72
2019-02-15T11:49:37.328Z,74.06
2019-02-15T11:52:08.511Z,73.84
2019-02-15T11:54:39.033Z,73.56
2019-02-15T11:57:09.454Z,73.37
2019-02-15T11:59:40.598Z,73.09
2019-02-15T12:02:11.392Z,72.81
2019-02-15T12:04:43.199Z,72.55
2019-02-15T12:07:14.565Z,72.08
2019-02-15T12:09:45.375Z,71.95
2019-02-15T12:12:16.182Z,71.82
2019-02-15T12:14:46.957Z,71.61
2019-02-15T12:17:20.746Z,71.24
2019-02-15T12:19:51.173Z,70.80
2019-02-15T12:22:21.862Z,70.77
2019-02-15T12:24:52.958Z,70.49
2019-02-15T12:27:23.469Z,70.49
2019-02-15T12:29:55.906Z,70.55
2019-02-15T12:32:26.679Z,70.52
2019-02-15T12:34:57.395Z,70.54
2019-02-15T12:37:28.149Z,70.44
2019-02-15T12:39:59.177Z,70.02
2019-02-15T12:42:30.257Z,70.10
2019-02-15T12:45:01.090Z,69.98
2019-02-15T12:47:31.775Z,70.19
2019-02-15T12:50:02.840Z,70.56
2019-02-15T12:52:35.243Z,70.37
2019-02-15T12:55:06.029Z,70.46
2019-02-15T12:57:37.130Z,70.31
2019-02-15T13:00:10.724Z,70.24
2019-02-15T13:02:41.664Z,69.96
2019-02-15T13:05:14.187Z,69.95
2019-02-15T13:07:45.232Z,69.95
2019-02-15T13:10:21.511Z,69.68
2019-02-15T13:12:52.715Z,69.97
2019-02-15T13:15:23.304Z,70.04
2019-02-15T13:17:54.183Z,70.12
2019-02-15T13:20:25.020Z,70.34
2019-02-15T13:22:56.075Z,70.21
2019-02-15T13:25:34.918Z,70.27
2019-02-15T13:28:12.736Z,70.00
2019-02-15T13:30:43.410Z,69.62
2019-02-15T13:33:14.219Z,69.62
2019-02-15T13:35:45.195Z,69.57
2019-02-15T13:38:15.755Z,69.75
2019-02-15T13:40:47.055Z,69.69
2019-02-15T13:43:17.958Z,69.19
2019-02-15T13:45:48.645Z,69.19
2019-02-15T13:48:19.359Z,69.74
2019-02-15T13:50:50.446Z,69.78
2019-02-15T13:53:22.094Z,69.83
2019-02-15T13:55:52.964Z,70.06
2019-02-15T13:58:24.364Z,70.24
2019-02-15T14:00:55.067Z,70.10
2019-02-15T14:03:27.916Z,69.92
2019-02-15T14:05:58.799Z,70.00
2019-02-15T14:08:30.324Z,70.13
2019-02-15T14:11:01.289Z,70.46
2019-02-15T14:13:32.959Z,70.46
2019-02-15T14:16:04.929Z,70.54
2019-02-15T14:18:35.843Z,70.18
2019-02-15T14:21:07.118Z,70.33
2019-02-15T14:23:37.832Z,70.38
2019-02-15T14:26:08.981Z,70.14
2019-02-15T14:28:41.319Z,70.01
2019-02-15T14:31:11.811Z,70.10
2019-02-15T14:33:42.749Z,69.98
2019-02-15T14:36:13.523Z,69.67
2019-02-15T14:38:44.421Z,69.76
2019-02-15T14:41:16.401Z,69.83
2019-02-15T14:43:47.924Z,70.12
2019-02-15T14:46:18.715Z,70.12
2019-02-15T14:48:49.456Z,70.08
2019-02-15T14:51:20.449Z,70.01
2019-02-15T14:53:51.329Z,70.45
2019-02-15T14:56:22.004Z,70.91
2019-02-15T14:58:52.971Z,71.49
2019-02-15T15:01:23.996Z,72.63
2019-02-15T15:03:55.331Z,72.56
2019-02-15T15:06:26.146Z,72.46
2019-02-15T15:08:59.675Z,72.78
2019-02-15T15:11:30.579Z,73.19
2019-02-15T15:14:01.519Z,73.39
2019-02-15T15:16:32.483Z,73.44
2019-02-15T15:19:03.732Z,73.68
2019-02-15T15:21:35.133Z,74.01
2019-02-15T15:24:05.904Z,73.93
2019-02-15T15:26:37.060Z,74.11
2019-02-15T15:29:07.964Z,74.38
2019-02-15T15:31:39.378Z,74.48
2019-02-15T15:34:19.656Z,74.51
2019-02-15T15:36:53.446Z,74.60
2019-02-15T15:39:24.313Z,74.80
2019-02-15T15:41:57.525Z,74.67
2019-02-15T15:44:28.118Z,74.45
2019-02-15T15:46:59.001Z,74.32
2019-02-15T15:49:29.946Z,74.16
2019-02-15T15:52:00.751Z,74.12
2019-02-15T15:54:31.452Z,74.17
2019-02-15T15:57:05.271Z,73.91
2019-02-15T15:59:36.093Z,73.67
2019-02-15T16:02:09.507Z,73.46
2019-02-15T16:04:40.254Z,73.39
2019-02-15T16:07:11.171Z,73.09
2019-02-15T16:09:41.665Z,72.95
2019-02-15T16:12:18.999Z,72.66
2019-02-15T16:14:53.410Z,72.30
2019-02-15T16:17:30.930Z,71.79
2019-02-15T16:20:01.868Z,72.16
2019-02-15T16:22:32.480Z,72.17
2019-02-15T16:25:06.399Z,72.22
2019-02-15T16:27:38.043Z,72.28
2019-02-15T16:30:10.099Z,72.21
2019-02-15T16:32:40.839Z,72.07
2019-02-15T16:35:13.233Z,72.03
2019-02-15T16:38:18.837Z,72.03
2019-02-15T16:40:49.731Z,72.06
2019-02-15T16:43:20.891Z,72.15
2019-02-15T16:45:52.362Z,72.09
2019-02-15T16:48:23.577Z,72.08
2019-02-15T16:50:54.548Z,71.83
2019-02-15T16:53:25.290Z,71.98
2019-02-15T16:55:56.438Z,71.97
2019-02-15T16:58:27.123Z,71.99
2019-02-15T17:00:58.149Z,72.04
2019-02-15T17:03:29.046Z,72.16
2019-02-15T17:05:59.906Z,72.21
2019-02-15T17:08:30.639Z,72.42
2019-02-15T17:11:01.470Z,72.44
2019-02-15T17:13:34.614Z,72.45
2019-02-15T17:16:05.179Z,72.50
2019-02-15T17:18:35.903Z,72.46
2019-02-15T17:21:06.775Z,72.50
2019-02-15T17:23:37.539Z,72.50
2019-02-15T17:26:08.110Z,72.62
2019-02-15T17:28:38.843Z,72.55
2019-02-15T17:31:09.688Z,72.61
2019-02-15T17:33:40.244Z,72.92
2019-02-15T17:36:12.195Z,73.02
2019-02-15T17:38:43.095Z,73.01
2019-02-15T17:41:13.956Z,73.11
2019-02-15T17:43:44.806Z,73.10
2019-02-15T17:46:15.635Z,73.11
2019-02-15T17:48:46.676Z,73.03
2019-02-15T17:51:18.035Z,72.85
2019-02-15T17:53:48.953Z,72.81
2019-02-15T17:56:20.405Z,72.94
2019-02-15T17:58:51.650Z,73.01
2019-02-15T18:01:22.418Z,72.92
2019-02-15T18:03:53.388Z,72.96
2019-02-15T18:06:26.998Z,72.87
2019-02-15T18:08:58.116Z,72.96
2019-02-15T18:11:28.674Z,72.82
2019-02-15T18:13:59.613Z,72.77
2019-02-15T18:16:30.490Z,72.77
2019-02-15T18:19:09.644Z,72.68
2019-02-15T18:21:33.864Z,72.51
2019-02-15T18:24:05.502Z,72.27
2019-02-15T18:26:36.864Z,72.43
2019-02-15T18:29:07.771Z,72.40
2019-02-15T18:31:38.480Z,72.39
2019-02-15T18:34:11.993Z,72.31
2019-02-15T18:36:43.397Z,72.08
2019-02-15T18:39:16.039Z,71.97
2019-02-15T18:41:47.045Z,71.73
2019-02-15T18:44:17.940Z,71.80
2019-02-15T18:46:48.636Z,71.78
2019-02-15T18:49:19.782Z,71.68
2019-02-15T18:51:54.407Z,71.70
2019-02-15T18:54:25.548Z,71.88
2019-02-15T18:56:56.047Z,72.08
2019-02-15T18:59:26.655Z,72.28
2019-02-15T19:02:00.804Z,72.51
2019-02-15T19:04:31.750Z,72.89
2019-02-15T19:07:09.381Z,73.64
2019-02-15T19:09:40.780Z,73.74
2019-02-15T19:12:11.669Z,73.67
2019-02-15T19:14:42.261Z,73.66
2019-02-15T19:17:13.013Z,73.97
2019-02-15T19:19:44.304Z,73.93
2019-02-15T19:22:14.988Z,74.22
2019-02-15T19:24:49.322Z,74.25
2019-02-15T19:27:23.489Z,74.03
2019-02-15T19:29:58.428Z,74.02
2019-02-15T19:32:29.559Z,74.17
2019-02-15T19:34:59.937Z,74.18
2019-02-15T19:37:31.327Z,74.23
2019-02-15T19:40:02.720Z,74.30
2019-02-15T19:42:33.832Z,74.38
2019-02-15T19:45:05.560Z,74.37
2019-02-15T19:47:39.707Z,74.31
2019-02-15T19:50:14.766Z,74.23
2019-02-15T19:52:47.307Z,74.04
2019-02-15T19:55:18.152Z,74.25
2019-02-15T19:57:48.923Z,74.37
2019-02-15T20:00:19.533Z,74.46
2019-02-15T20:02:50.253Z,74.44
2019-02-15T20:05:21.018Z,74.64
2019-02-15T20:07:51.891Z,74.49
2019-02-15T20:10:25.289Z,74.33
2019-02-15T20:12:56.137Z,74.29
2019-02-15T20:15:27.319Z,74.16
2019-02-15T20:17:57.937Z,74.13
2019-02-15T20:20:28.902Z,73.93
2019-02-15T20:22:59.620Z,73.93
2019-02-15T20:25:30.591Z,74.09
2019-02-15T20:28:02.104Z,74.36
2019-02-15T20:30:35.008Z,74.35
2019-02-15T20:33:06.119Z,74.25
2019-02-15T20:35:37.006Z,74.06
2019-02-15T20:38:08.620Z,73.64
2019-02-15T20:40:39.961Z,73.51
2019-02-15T20:43:10.728Z,73.49
2019-02-15T20:45:41.690Z,73.19
2019-02-15T20:48:13.190Z,72.50
2019-02-15T20:50:44.617Z,72.84
2019-02-15T20:53:15.306Z,72.74
2019-02-15T20:55:46.085Z,72.73
2019-02-15T20:58:17.097Z,72.88
2019-02-15T21:00:48.250Z,72.93
2019-02-15T21:03:19.516Z,73.20
2019-02-15T21:05:50.353Z,73.27
2019-02-15T21:08:21.155Z,73.29
2019-02-15T21:10:55.018Z,73.27
2019-02-15T21:13:25.490Z,73.10
2019-02-15T21:15:58.963Z,73.24
2019-02-15T21:18:29.901Z,73.48
2019-02-15T21:21:01.508Z,73.59
2019-02-15T21:23:33.372Z,73.69
2019-02-15T21:26:05.922Z,73.75
2019-02-15T21:28:37.308Z,73.84
2019-02-15T21:31:08.219Z,73.81
2019-02-15T21:33:38.890Z,74.04
2019-02-15T21:36:10.052Z,74.11
2019-02-15T21:38:40.771Z,74.26
2019-02-15T21:41:11.380Z,74.41
2019-02-15T21:43:42.053Z,74.39
2019-02-15T21:46:12.819Z,74.56
2019-02-15T21:48:43.826Z,74.77
2019-02-15T21:51:16.740Z,74.56
2019-02-15T21:53:47.688Z,74.81
2019-02-15T21:56:24.584Z,74.90
2019-02-15T21:58:55.672Z,75.00
2019-02-15T22:01:26.580Z,75.02
2019-02-15T22:03:57.364Z,75.18
2019-02-15T22:06:30.657Z,75.32
2019-02-15T22:09:01.839Z,75.43
2019-02-15T22:11:34.624Z,75.46
2019-02-15T22:14:05.478Z,75.51
2019-02-15T22:16:36.737Z,75.46
2019-02-15T22:19:07.543Z,75.35
2019-02-15T22:21:38.107Z,75.17
2019-02-15T22:24:08.985Z,75.12
2019-02-15T22:26:40.371Z,75.54
2019-02-15T22:29:11.885Z,75.47
2019-02-15T22:31:42.988Z,75.72
2019-02-15T22:34:13.861Z,75.82
2019-02-15T22:36:44.705Z,75.88
2019-02-15T22:39:15.791Z,76.06
2019-02-15T22:41:46.862Z,76.09
2019-02-15T22:44:17.923Z,76.25
2019-02-15T22:46:48.853Z,76.15
2019-02-15T22:49:19.477Z,76.31
2019-02-15T22:51:50.879Z,76.37
2019-02-15T22:54:22.582Z,76.32
2019-02-15T22:56:53.807Z,76.42
2019-02-15T22:59:24.653Z,76.25
2019-02-15T23:01:55.298Z,76.22
2019-02-15T23:04:26.084Z,76.30
2019-02-15T23:06:57.267Z,76.50
2019-02-15T23:09:28.473Z,76.41
2019-02-15T23:11:59.295Z,76.46
2019-02-15T23:14:30.368Z,76.41
2019-02-15T23:17:01.182Z,76.39
2019-02-15T23:19:31.988Z,76.63
2019-02-15T23:22:02.592Z,76.67
2019-02-15T23:24:33.283Z,76.57
2019-02-15T23:27:04.128Z,76.59
2019-02-15T23:29:34.742Z,76.47
2019-02-15T23:32:05.503Z,76.70
2019-02-15T23:34:36.445Z,76.73
2019-02-15T23:37:07.349Z,76.72
2019-02-15T23:39:37.864Z,76.69
2019-02-15T23:42:08.641Z,76.72
2019-02-15T23:44:39.483Z,76.98
2019-02-15T23:47:10.161Z,77.10
2019-02-15T23:49:40.798Z,77.31
2019-02-15T23:52:11.898Z,77.06
2019-02-15T23:54:42.859Z,76.95
2019-02-15T23:57:13.550Z,77.08
2019-02-15T23:59:44.384Z,77.14
